Time,TemperatureF,DewpointF,PressureIn,WindDirection,WindDirectionDegrees,WindSpeedMPH,WindSpeedGustMPH,Humidity,HourlyPrecipIn,Conditions,Clouds,dailyrainin,SolarRadiationWatts/m^2,SoftwareType,DateUTC
2013-11-26 00:02:00,44.0,16.0,-100.00,ESE,107,2.0,3.0,32,0.00,,,0.00,0.000000,,2013-11-26 08:02:00,
2013-11-26 00:11:00,44.0,16.0,-100.00,ESE,107,2.0,3.0,32,0.00,,,0.00,0.000000,,2013-11-26 08:11:00,
2013-11-26 00:22:00,44.0,16.0,-100.00,ESE,107,2.0,3.0,32,0.00,,,0.00,0.000000,,2013-11-26 08:22:00,
2013-11-26 00:52:00,44.0,16.0,-100.00,East,84,0.0,4.0,32,0.00,,,0.00,0.000000,,2013-11-26 08:52:00,
2013-11-26 01:02:00,44.0,16.0,-100.00,East,84,0.0,4.0,32,0.00,,,0.00,0.000000,,2013-11-26 09:02:00,
2013-11-26 01:11:00,44.0,16.0,-100.00,East,84,0.0,4.0,32,0.00,,,0.00,0.000000,,2013-11-26 09:11:00,
2013-11-26 01:21:00,44.0,16.0,-100.00,East,84,0.0,4.0,32,0.00,,,0.00,0.000000,,2013-11-26 09:21:00,
2013-11-26 01:54:00,43.0,16.0,-100.00,SSW,203,1.0,3.0,33,0.00,,,0.00,0.000000,,2013-11-26 09:54:00,
2013-11-26 02:03:00,43.0,16.0,-100.00,SSW,203,1.0,3.0,33,0.00,,,0.00,0.000000,,2013-11-26 10:03:00,
2013-11-26 02:12:00,43.0,16.0,-100.00,SSW,203,1.0,3.0,33,0.00,,,0.00,0.000000,,2013-11-26 10:12:00,
2013-11-26 02:23:00,43.0,16.0,-100.00,SSW,203,1.0,3.0,33,0.00,,,0.00,0.000000,,2013-11-26 10:23:00,
2013-11-26 02:53:00,42.0,15.0,-100.00,SSW,200,2.0,3.0,33,0.00,,,-99.99,0.000000,,2013-11-26 10:53:00,
2013-11-26 03:02:00,42.0,15.0,-100.00,SSW,200,2.0,3.0,33,0.00,,,-99.99,0.000000,,2013-11-26 11:02:00,
2013-11-26 03:12:00,42.0,15.0,-100.00,SSW,200,2.0,3.0,33,0.00,,,-99.99,0.000000,,2013-11-26 11:12:00,
2013-11-26 03:23:00,42.0,15.0,-100.00,SSW,200,2.0,3.0,33,0.00,,,-99.99,0.000000,,2013-11-26 11:23:00,
2013-11-26 03:52:00,42.0,14.0,-100.00,SSW,195,1.0,3.0,32,0.00,,,0.00,0.000000,,2013-11-26 11:52:00,
2013-11-26 04:02:00,42.0,14.0,-100.00,SSW,195,1.0,3.0,32,0.00,,,0.00,0.000000,,2013-11-26 12:02:00,
2013-11-26 04:12:00,42.0,14.0,-100.00,SSW,195,1.0,3.0,32,0.00,,,0.00,0.000000,,2013-11-26 12:12:00,
2013-11-26 04:21:00,42.0,14.0,-100.00,SSW,195,1.0,3.0,32,0.00,,,0.00,0.000000,,2013-11-26 12:21:00,
2013-11-26 04:52:00,42.0,14.0,-100.00,SSE,149,2.0,4.0,32,0.00,,,0.00,0.000000,,2013-11-26 12:52:00,
2013-11-26 05:02:00,42.0,14.0,-100.00,SSE,149,2.0,4.0,32,0.00,,,0.00,0.000000,,2013-11-26 13:02:00,
2013-11-26 05:11:00,42.0,14.0,-100.00,SSE,149,2.0,4.0,32,0.00,,,0.00,0.000000,,2013-11-26 13:11:00,
2013-11-26 05:21:00,42.0,14.0,-100.00,SSE,149,2.0,4.0,32,0.00,,,0.00,0.000000,,2013-11-26 13:21:00,
2013-11-26 05:52:00,43.0,14.0,-100.00,SE,125,3.0,5.0,31,0.00,,,0.00,0.000000,,2013-11-26 13:52:00,
2013-11-26 06:02:00,43.0,14.0,-100.00,SE,125,3.0,5.0,31,0.00,,,0.00,0.000000,,2013-11-26 14:02:00,
2013-11-26 06:11:00,43.0,14.0,-100.00,SE,125,3.0,5.0,31,0.00,,,0.00,0.000000,,2013-11-26 14:11:00,
2013-11-26 06:21:00,43.0,14.0,-100.00,SE,125,3.0,5.0,31,0.00,,,0.00,0.000000,,2013-11-26 14:21:00,
2013-11-26 06:52:00,43.0,13.0,-100.00,SE,139,3.0,4.0,29,0.00,,,0.00,0.000000,,2013-11-26 14:52:00,
2013-11-26 07:02:00,43.0,13.0,-100.00,SE,139,3.0,4.0,29,0.00,,,0.00,0.000000,,2013-11-26 15:02:00,
2013-11-26 07:12:00,43.0,13.0,-100.00,SE,139,3.0,4.0,29,0.00,,,0.00,0.000000,,2013-11-26 15:12:00,
2013-11-26 07:21:00,43.0,13.0,-100.00,SE,139,3.0,4.0,29,0.00,,,0.00,0.000000,,2013-11-26 15:21:00,
2013-11-26 07:54:00,43.0,12.0,-100.00,SE,128,1.0,4.0,28,0.00,,,0.00,0.000000,,2013-11-26 15:54:00,
2013-11-26 08:04:00,43.0,12.0,-100.00,SE,128,1.0,4.0,28,0.00,,,0.00,0.000000,,2013-11-26 16:04:00,
2013-11-26 08:13:00,43.0,12.0,-100.00,SE,128,1.0,4.0,28,0.00,,,0.00,0.000000,,2013-11-26 16:13:00,
2013-11-26 08:23:00,43.0,12.0,-100.00,SE,128,1.0,4.0,28,0.00,,,0.00,0.000000,,2013-11-26 16:23:00,
2013-11-26 08:54:00,44.0,13.0,-100.00,SE,126,3.0,4.0,28,0.00,,,0.00,12.000000,,2013-11-26 16:54:00,
2013-11-26 09:02:00,44.0,13.0,-100.00,SE,126,3.0,4.0,28,0.00,,,0.00,12.000000,,2013-11-26 17:02:00,
2013-11-26 09:13:00,44.0,13.0,-100.00,SE,126,3.0,4.0,28,0.00,,,0.00,12.000000,,2013-11-26 17:13:00,
2013-11-26 09:22:00,44.0,13.0,-100.00,SE,126,3.0,4.0,28,0.00,,,0.00,12.000000,,2013-11-26 17:22:00,
2013-11-26 09:52:00,48.0,15.0,-100.00,SSE,147,1.0,5.0,26,0.00,,,0.00,49.000000,,2013-11-26 17:52:00,
2013-11-26 10:02:00,48.0,15.0,-100.00,SSE,147,1.0,5.0,26,0.00,,,0.00,49.000000,,2013-11-26 18:02:00,
2013-11-26 10:11:00,48.0,15.0,-100.00,SSE,147,1.0,5.0,26,0.00,,,0.00,49.000000,,2013-11-26 18:11:00,
2013-11-26 10:21:00,48.0,15.0,-100.00,SSE,147,1.0,5.0,26,0.00,,,0.00,49.000000,,2013-11-26 18:21:00,
2013-11-26 10:53:00,47.0,17.0,-100.00,West,272,1.0,7.0,30,0.00,,,0.00,80.000000,,2013-11-26 18:53:00,
2013-11-26 11:02:00,47.0,17.0,-100.00,West,272,1.0,7.0,30,0.00,,,0.00,80.000000,,2013-11-26 19:02:00,
2013-11-26 11:11:00,47.0,17.0,-100.00,West,272,1.0,7.0,30,0.00,,,0.00,80.000000,,2013-11-26 19:11:00,
2013-11-26 11:21:00,47.0,17.0,-100.00,West,272,1.0,7.0,30,0.00,,,0.00,80.000000,,2013-11-26 19:21:00,
2013-11-26 11:52:00,49.0,24.0,-100.00,ESE,117,3.0,13.0,37,0.00,,,0.00,141.000000,,2013-11-26 19:52:00,
2013-11-26 12:02:00,49.0,24.0,-100.00,ESE,117,3.0,13.0,37,0.00,,,0.00,141.000000,,2013-11-26 20:02:00,
2013-11-26 12:11:00,49.0,24.0,-100.00,ESE,117,3.0,13.0,37,0.00,,,0.00,141.000000,,2013-11-26 20:11:00,
2013-11-26 12:22:00,49.0,24.0,-100.00,ESE,117,3.0,13.0,37,0.00,,,0.00,141.000000,,2013-11-26 20:22:00,
2013-11-26 12:53:00,52.0,28.0,-100.00,ESE,102,3.0,10.0,40,0.00,,,0.00,270.000000,,2013-11-26 20:53:00,
2013-11-26 13:02:00,52.0,28.0,-100.00,ESE,102,3.0,10.0,40,0.00,,,0.00,270.000000,,2013-11-26 21:02:00,
2013-11-26 13:11:00,52.0,28.0,-100.00,ESE,102,3.0,10.0,40,0.00,,,0.00,270.000000,,2013-11-26 21:11:00,
2013-11-26 13:53:00,50.0,29.0,-100.00,South,186,3.0,12.0,45,-99.99,,,0.00,94.000000,,2013-11-26 21:53:00,
2013-11-26 14:03:00,50.0,29.0,-100.00,South,186,3.0,12.0,45,-99.99,,,0.00,94.000000,,2013-11-26 22:03:00,
2013-11-26 14:13:00,50.0,29.0,-100.00,South,186,3.0,12.0,45,-99.99,,,0.00,94.000000,,2013-11-26 22:13:00,
2013-11-26 14:23:00,50.0,29.0,-100.00,South,186,3.0,12.0,45,-99.99,,,0.00,94.000000,,2013-11-26 22:23:00,
2013-11-26 15:53:00,48.0,33.0,-100.00,South,180,1.0,6.0,56,-99.99,,,0.00,78.000000,,2013-11-26 23:53:00,
2013-11-26 16:02:00,48.0,33.0,-100.00,South,180,1.0,6.0,56,-99.99,,,0.00,78.000000,,2013-11-27 00:02:00,
2013-11-26 16:11:00,48.0,33.0,-100.00,South,180,1.0,6.0,56,-99.99,,,0.00,78.000000,,2013-11-27 00:11:00,
2013-11-26 16:21:00,48.0,33.0,-100.00,South,180,1.0,6.0,56,-99.99,,,0.00,78.000000,,2013-11-27 00:21:00,
2013-11-26 16:52:00,46.0,36.0,-100.00,SSE,165,1.0,3.0,69,0.00,,,0.00,14.000000,,2013-11-27 00:52:00,
2013-11-26 17:02:00,46.0,36.0,-100.00,SSE,165,1.0,3.0,69,0.00,,,0.00,14.000000,,2013-11-27 01:02:00,
2013-11-26 17:11:00,46.0,36.0,-100.00,SSE,165,1.0,3.0,69,0.00,,,0.00,14.000000,,2013-11-27 01:11:00,
2013-11-26 17:21:00,46.0,36.0,-100.00,SSE,165,1.0,3.0,69,0.00,,,0.00,14.000000,,2013-11-27 01:21:00,
2013-11-26 17:52:00,45.0,42.0,-100.00,South,183,0.0,4.0,89,0.00,,,0.00,0.000000,,2013-11-27 01:52:00,
2013-11-26 18:02:00,45.0,42.0,-100.00,South,183,0.0,4.0,89,0.00,,,0.00,0.000000,,2013-11-27 02:02:00,
2013-11-26 18:12:00,45.0,42.0,-100.00,South,183,0.0,4.0,89,0.00,,,0.00,0.000000,,2013-11-27 02:12:00,
2013-11-26 18:21:00,45.0,42.0,-100.00,South,183,0.0,4.0,89,0.00,,,0.00,0.000000,,2013-11-27 02:21:00,
2013-11-26 18:52:00,45.0,42.0,-100.00,South,184,0.0,4.0,89,0.00,,,0.00,0.000000,,2013-11-27 02:52:00,
2013-11-26 19:02:00,45.0,42.0,-100.00,South,184,0.0,4.0,89,0.00,,,0.00,0.000000,,2013-11-27 03:02:00,
2013-11-26 19:11:00,45.0,42.0,-100.00,South,184,0.0,4.0,89,0.00,,,0.00,0.000000,,2013-11-27 03:11:00,
2013-11-26 19:21:00,45.0,42.0,-100.00,South,184,0.0,4.0,89,0.00,,,0.00,0.000000,,2013-11-27 03:21:00,
2013-11-26 19:53:00,45.0,42.0,-100.00,SE,137,2.0,4.0,90,0.00,,,0.00,0.000000,,2013-11-27 03:53:00,
2013-11-26 20:03:00,45.0,42.0,-100.00,SE,137,2.0,4.0,90,0.00,,,0.00,0.000000,,2013-11-27 04:03:00,
2013-11-26 20:13:00,45.0,42.0,-100.00,SE,137,2.0,4.0,90,0.00,,,0.00,0.000000,,2013-11-27 04:13:00,
2013-11-26 20:23:00,45.0,42.0,-100.00,SE,137,2.0,4.0,90,0.00,,,0.00,0.000000,,2013-11-27 04:23:00,
2013-11-26 20:53:00,44.0,42.0,-100.00,SW,226,0.0,2.0,93,0.00,,,0.00,0.000000,,2013-11-27 04:53:00,
2013-11-26 21:02:00,44.0,42.0,-100.00,SW,226,0.0,2.0,93,0.00,,,0.00,0.000000,,2013-11-27 05:02:00,
2013-11-26 21:12:00,44.0,42.0,-100.00,SW,226,0.0,2.0,93,0.00,,,0.00,0.000000,,2013-11-27 05:12:00,
2013-11-26 21:22:00,44.0,42.0,-100.00,SW,226,0.0,2.0,93,0.00,,,0.00,0.000000,,2013-11-27 05:22:00,
2013-11-26 21:53:00,45.0,43.0,-100.00,SE,135,1.0,3.0,92,0.00,,,0.00,0.000000,,2013-11-27 05:53:00,
2013-11-26 22:02:00,45.0,43.0,-100.00,SE,135,1.0,3.0,92,0.00,,,0.00,0.000000,,2013-11-27 06:02:00,
2013-11-26 22:12:00,45.0,43.0,-100.00,SE,135,1.0,3.0,92,0.00,,,0.00,0.000000,,2013-11-27 06:12:00,
2013-11-26 22:22:00,45.0,43.0,-100.00,SE,135,1.0,3.0,92,0.00,,,0.00,0.000000,,2013-11-27 06:22:00,
2013-11-26 22:52:00,45.0,42.0,-100.00,SE,142,1.0,3.0,90,0.00,,,0.00,0.000000,,2013-11-27 06:52:00,
2013-11-26 23:02:00,45.0,42.0,-100.00,SE,142,1.0,3.0,90,0.00,,,0.00,0.000000,,2013-11-27 07:02:00,
2013-11-26 23:11:00,45.0,42.0,-100.00,SE,142,1.0,3.0,90,0.00,,,0.00,0.000000,,2013-11-27 07:11:00,
2013-11-26 23:21:00,45.0,42.0,-100.00,SE,142,1.0,3.0,90,0.00,,,0.00,0.000000,,2013-11-27 07:21:00,
2013-11-26 23:52:00,45.0,43.0,-100.00,SSE,161,0.0,4.0,91,0.00,,,0.00,0.000000,,2013-11-27 07:52:00,